Time;durP1;ratioP1;P1;durP2;ratioP2;P2;SDS_P1;SDS_P2;PMS_P1;PMS_P2;Temp;Humidity;BMP_temperature;BMP_pressure;BME280_temperature;BME280_humidity;BME280_pressure;Samples;Min_cycle;Max_cycle;Signal;HPM_P1;HPM_P2
2021/09/25 00:01:45;;;;;;;71.80;66.72;;;;;;;15.10;100.00;100998.69;4975969;28;20055;-80
2021/09/25 00:04:12;;;;;;;75.40;70.43;;;;;;;15.02;100.00;101002.50;4976220;28;20066;-80
2021/09/25 00:06:39;;;;;;;60.92;56.30;;;;;;;14.82;100.00;101004.63;4977202;28;20058;-81
2021/09/25 00:09:06;;;;;;;65.78;60.78;;;;;;;14.79;100.00;101003.22;4975366;28;20054;-79
2021/09/25 00:11:34;;;;;;;65.38;60.70;;;;;;;14.58;100.00;101007.25;4976006;28;20124;-79
2021/09/25 00:14:01;;;;;;;64.53;59.88;;;;;;;14.19;100.00;101011.13;4975906;28;20455;-79
2021/09/25 00:16:28;;;;;;;70.25;65.25;;;;;;;13.79;100.00;101032.09;4976746;28;20073;-79
2021/09/25 00:18:57;;;;;;;69.68;64.28;;;;;;;13.63;100.00;101026.28;4976280;28;20054;-79
2021/09/25 00:21:24;;;;;;;61.95;57.42;;;;;;;13.55;100.00;101025.72;4975820;28;20066;-80
2021/09/25 00:23:53;;;;;;;67.45;62.55;;;;;;;13.36;100.00;101036.34;4975828;28;20058;-78
2021/09/25 00:26:20;;;;;;;65.53;60.83;;;;;;;13.43;100.00;101030.94;4975737;28;20503;-79
2021/09/25 00:28:49;;;;;;;69.15;64.43;;;;;;;13.76;100.00;101036.00;4975421;28;20373;-79
2021/09/25 00:31:16;;;;;;;71.97;66.88;;;;;;;13.33;100.00;101042.09;4975524;28;20483;-79
2021/09/25 00:33:43;;;;;;;65.40;60.35;;;;;;;13.43;100.00;101033.63;4975880;28;20058;-82
2021/09/25 00:36:10;;;;;;;67.20;62.40;;;;;;;13.80;100.00;101036.38;4976508;28;20140;-79
2021/09/25 00:38:37;;;;;;;68.07;63.22;;;;;;;14.17;100.00;101031.94;4975559;28;20534;-80
2021/09/25 00:41:04;;;;;;;65.95;61.58;;;;;;;14.26;100.00;101032.47;4975697;28;20054;-79
2021/09/25 00:43:31;;;;;;;65.40;60.83;;;;;;;14.37;100.00;101039.72;4975743;28;20054;-79
2021/09/25 00:46:00;;;;;;;68.88;64.35;;;;;;;13.91;100.00;101052.50;4975727;28;20501;-80
2021/09/25 00:48:26;;;;;;;70.38;65.45;;;;;;;13.45;100.00;101050.22;4975065;28;20427;-80
2021/09/25 00:50:53;;;;;;;62.42;57.38;;;;;;;13.38;100.00;101052.97;4975977;28;20062;-80
2021/09/25 00:53:20;;;;;;;68.50;63.10;;;;;;;13.47;100.00;101048.19;4975075;28;20083;-80
2021/09/25 00:55:48;;;;;;;64.18;59.28;;;;;;;13.53;100.00;101041.97;4975069;28;20476;-79
2021/09/25 00:58:15;;;;;;;70.10;65.13;;;;;;;13.39;100.00;101045.75;4975281;28;20061;-80
2021/09/25 01:00:42;;;;;;;64.10;58.97;;;;;;;12.81;100.00;101054.69;4975171;28;20061;-78
2021/09/25 01:03:10;;;;;;;70.85;65.40;;;;;;;12.82;100.00;101057.13;4974849;28;20089;-78
2021/09/25 01:05:40;;;;;;;76.13;70.47;;;;;;;12.23;100.00;101057.34;4976118;28;20051;-78
2021/09/25 01:08:07;;;;;;;88.43;82.30;;;;;;;12.23;100.00;101066.16;4974746;28;20494;-78
2021/09/25 01:10:34;;;;;;;77.40;72.03;;;;;;;12.11;100.00;101065.16;4975040;28;20471;-79
2021/09/25 01:13:01;;;;;;;75.20;69.82;;;;;;;12.42;100.00;101064.47;4975122;28;20055;-77
2021/09/25 01:15:28;;;;;;;74.65;69.22;;;;;;;12.59;100.00;101060.31;4975788;28;20059;-79
2021/09/25 01:17:55;;;;;;;68.60;63.83;;;;;;;12.79;100.00;101059.41;4974558;28;20113;-79
2021/09/25 01:20:23;;;;;;;69.43;63.42;;;;;;;12.75;100.00;101068.88;4973628;28;20117;-78
2021/09/25 01:22:51;;;;;;;68.00;62.80;;;;;;;12.63;100.00;101068.69;4974692;28;20538;-79
2021/09/25 01:25:18;;;;;;;67.35;62.13;;;;;;;12.50;100.00;101076.75;4975347;28;20436;-78
2021/09/25 01:27:45;;;;;;;72.25;66.30;;;;;;;12.48;100.00;101087.59;4974404;28;20050;-79
2021/09/25 01:30:15;;;;;;;66.00;60.40;;;;;;;12.45;100.00;101090.69;4974957;28;20055;-81
2021/09/25 01:32:42;;;;;;;68.88;63.60;;;;;;;12.25;100.00;101095.22;4974475;28;20455;-77
2021/09/25 01:35:10;;;;;;;70.55;65.47;;;;;;;11.94;100.00;101099.38;4974609;28;20404;-80
2021/09/25 01:37:38;;;;;;;80.10;74.38;;;;;;;12.09;100.00;101096.50;4975493;28;20055;-77
2021/09/25 01:40:08;;;;;;;68.60;63.80;;;;;;;12.12;100.00;101096.88;4974719;28;20051;-78
2021/09/25 01:42:35;;;;;;;67.90;62.78;;;;;;;12.01;100.00;101102.88;4974658;28;20058;-78
2021/09/25 01:45:03;;;;;;;60.50;55.25;;;;;;;11.73;100.00;101103.00;4974281;28;20527;-78
2021/09/25 01:47:29;;;;;;;71.05;65.60;;;;;;;11.93;100.00;101104.91;4974539;28;20062;-78
2021/09/25 01:50:00;;;;;;;62.72;58.03;;;;;;;12.10;100.00;101106.94;4974372;28;20113;-79
2021/09/25 01:52:28;;;;;;;73.63;68.57;;;;;;;12.13;100.00;101113.69;4974448;28;20054;-80
2021/09/25 01:54:55;;;;;;;80.50;74.78;;;;;;;11.82;100.00;101114.28;4974532;28;20538;-79
2021/09/25 01:57:23;;;;;;;70.90;64.90;;;;;;;11.40;100.00;101116.25;4974765;28;20047;-78
2021/09/25 01:59:50;;;;;;;77.45;71.75;;;;;;;11.37;100.00;101120.16;4974239;28;20050;-79
2021/09/25 02:02:18;;;;;;;67.85;62.65;;;;;;;11.48;100.00;101120.59;5080032;23;20054;-79
2021/09/25 02:04:47;;;;;;;62.20;57.45;;;;;;;11.62;100.00;101124.91;4972450;28;20474;-78
2021/09/25 02:07:16;;;;;;;60.97;56.33;;;;;;;11.50;100.00;101134.50;4972661;28;20133;-77
2021/09/25 02:09:42;;;;;;;57.92;53.60;;;;;;;11.62;100.00;101130.25;4972847;28;20138;-77
2021/09/25 02:12:09;;;;;;;69.43;64.07;;;;;;;11.56;100.00;101134.53;4972113;28;20042;-77
2021/09/25 02:14:39;;;;;;;78.00;72.40;;;;;;;11.51;100.00;101130.84;4972141;28;20059;-79
2021/09/25 02:17:06;;;;;;;67.82;62.80;;;;;;;11.53;100.00;101129.63;4972359;28;20047;-80
2021/09/25 02:19:33;;;;;;;68.30;62.92;;;;;;;11.39;100.00;101141.22;4972858;28;20113;-80
2021/09/25 02:21:59;;;;;;;96.03;89.40;;;;;;;11.34;100.00;101138.34;4972020;28;20120;-77
2021/09/25 02:24:26;;;;;;;92.40;86.25;;;;;;;10.86;100.00;101141.88;4972106;28;20070;-80
2021/09/25 02:26:53;;;;;;;70.47;64.95;;;;;;;11.13;100.00;101150.75;4971782;28;20055;-77
2021/09/25 02:29:20;;;;;;;66.53;61.22;;;;;;;11.38;100.00;101151.06;4971964;28;20471;-78
2021/09/25 02:31:48;;;;;;;65.05;59.85;;;;;;;10.97;100.00;101162.56;4971518;28;20062;-78
2021/09/25 02:34:14;;;;;;;65.28;59.75;;;;;;;10.84;100.00;101153.72;4971941;28;20062;-78
2021/09/25 02:36:41;;;;;;;58.92;53.90;;;;;;;11.19;100.00;101159.78;4972999;28;20057;-79
2021/09/25 02:39:08;;;;;;;58.95;54.42;;;;;;;11.26;100.00;101157.97;4972114;28;20121;-79
2021/09/25 02:41:35;;;;;;;73.75;67.95;;;;;;;10.52;100.00;101180.69;4971978;28;20058;-79
2021/09/25 02:44:02;;;;;;;78.22;72.10;;;;;;;10.63;100.00;101178.53;4971812;28;20051;-80
2021/09/25 02:46:29;;;;;;;73.32;67.53;;;;;;;10.82;100.00;101177.00;4971829;28;20069;-79
2021/09/25 02:48:57;;;;;;;71.28;65.70;;;;;;;10.80;100.00;101181.69;4972048;28;20122;-80
2021/09/25 02:51:24;;;;;;;82.18;75.70;;;;;;;10.81;100.00;101192.13;4972125;28;20051;-78
2021/09/25 02:53:50;;;;;;;74.47;69.20;;;;;;;10.63;100.00;101189.97;4971776;28;20051;-78
2021/09/25 02:56:17;;;;;;;86.35;80.03;;;;;;;10.55;100.00;101206.84;4971690;28;20059;-78
2021/09/25 02:58:44;;;;;;;69.70;64.25;;;;;;;10.41;100.00;101206.94;4971696;28;20043;-78
2021/09/25 03:01:11;;;;;;;84.22;78.25;;;;;;;10.58;100.00;101210.97;4971561;28;20055;-79
2021/09/25 03:03:37;;;;;;;92.00;85.00;;;;;;;10.29;100.00;101218.13;4971674;28;20054;-78
2021/09/25 03:06:06;;;;;;;81.43;75.05;;;;;;;10.30;100.00;101225.06;4972458;28;20055;-79
2021/09/25 03:08:32;;;;;;;82.53;76.43;;;;;;;10.47;100.00;101228.28;4971771;28;20050;-78
2021/09/25 03:10:59;;;;;;;71.07;65.65;;;;;;;9.86;100.00;101227.88;4971694;28;20055;-79
2021/09/25 03:13:26;;;;;;;80.60;74.38;;;;;;;10.00;100.00;101227.00;4971765;28;20047;-78
2021/09/25 03:15:53;;;;;;;81.07;74.97;;;;;;;10.02;100.00;101235.59;4972793;28;20070;-79
2021/09/25 03:18:19;;;;;;;81.78;75.18;;;;;;;9.87;100.00;101234.84;4971261;28;20109;-79
2021/09/25 03:20:46;;;;;;;72.00;65.75;;;;;;;9.91;100.00;101235.28;4971300;28;20533;-79
2021/09/25 03:23:14;;;;;;;70.82;64.90;;;;;;;9.78;100.00;101242.09;4971656;28;20051;-77
2021/09/25 03:25:41;;;;;;;71.05;64.40;;;;;;;9.78;100.00;101243.94;4971675;28;20043;-81
2021/09/25 03:28:08;;;;;;;64.22;58.60;;;;;;;9.31;100.00;101248.66;4971354;28;20043;-79
2021/09/25 03:30:35;;;;;;;63.15;57.30;;;;;;;9.61;100.00;101252.09;4971757;28;20057;-79
2021/09/25 03:33:02;;;;;;;63.80;57.88;;;;;;;9.71;100.00;101258.94;4971340;28;20440;-79
2021/09/25 03:35:29;;;;;;;64.55;58.78;;;;;;;9.37;100.00;101263.03;4972491;28;20137;-79
2021/09/25 03:37:55;;;;;;;70.90;65.18;;;;;;;9.32;100.00;101265.41;4971788;28;20062;-78
2021/09/25 03:40:24;;;;;;;67.10;61.60;;;;;;;9.33;100.00;101269.72;4971452;28;20047;-79
2021/09/25 03:42:51;;;;;;;65.90;60.60;;;;;;;9.46;100.00;101266.41;4967767;28;20058;-79
2021/09/25 03:45:17;;;;;;;68.22;62.85;;;;;;;9.37;100.00;101268.31;4974913;28;20063;-79
2021/09/25 03:47:44;;;;;;;64.75;59.33;;;;;;;9.52;100.00;101266.47;4975833;28;20050;-79
2021/09/25 03:50:12;;;;;;;58.78;53.63;;;;;;;9.61;100.00;101261.88;4974388;28;20112;-78
2021/09/25 03:52:39;;;;;;;58.53;53.63;;;;;;;9.42;100.00;101275.75;4974751;28;20061;-78
2021/09/25 03:55:07;;;;;;;59.75;54.53;;;;;;;9.41;100.00;101274.91;4974566;28;20058;-82
2021/09/25 03:57:35;;;;;;;54.75;50.22;;;;;;;9.51;100.00;101275.44;4972816;28;20055;-78
2021/09/25 04:00:02;;;;;;;52.70;48.33;;;;;;;9.45;100.00;101272.72;4975438;28;20050;-77
2021/09/25 04:02:29;;;;;;;53.13;48.25;;;;;;;9.36;100.00;101270.16;4974242;28;20490;-79
2021/09/25 04:04:55;;;;;;;57.72;52.80;;;;;;;9.27;100.00;101276.56;4974489;28;20065;-80
2021/09/25 04:07:22;;;;;;;57.85;52.83;;;;;;;9.23;100.00;101277.09;4974453;28;20214;-79
2021/09/25 04:09:49;;;;;;;60.10;55.17;;;;;;;9.13;100.00;101285.31;4974418;28;20055;-79
2021/09/25 04:12:16;;;;;;;61.17;55.97;;;;;;;9.33;100.00;101283.78;4974854;28;20050;-78
2021/09/25 04:14:44;;;;;;;55.38;50.28;;;;;;;9.38;100.00;101280.59;4974526;28;20109;-81
2021/09/25 04:17:10;;;;;;;58.85;53.92;;;;;;;9.43;100.00;101288.78;4974065;28;20047;-79
2021/09/25 04:19:37;;;;;;;60.30;55.28;;;;;;;9.64;100.00;101298.66;4974351;28;20051;-78
2021/09/25 04:22:04;;;;;;;59.08;54.30;;;;;;;9.75;100.00;101303.50;4975322;28;20062;-78
2021/09/25 04:24:31;;;;;;;60.22;55.17;;;;;;;9.63;100.00;101305.78;4974198;28;20117;-78
2021/09/25 04:26:58;;;;;;;58.30;53.42;;;;;;;9.97;100.00;101304.34;4974210;28;20050;-79
2021/09/25 04:29:24;;;;;;;54.13;49.72;;;;;;;10.23;100.00;101309.13;4973640;28;20063;-79
2021/09/25 04:31:53;;;;;;;54.17;49.88;;;;;;;10.03;100.00;101313.38;4973889;28;20046;-79
2021/09/25 04:34:19;;;;;;;53.30;48.97;;;;;;;10.30;100.00;101323.28;4974152;28;20112;-78
2021/09/25 04:36:46;;;;;;;53.72;49.05;;;;;;;10.48;100.00;101340.63;4975013;28;20058;-80
2021/09/25 04:39:13;;;;;;;54.20;50.35;;;;;;;10.34;100.00;101339.66;4974062;28;20054;-78
2021/09/25 04:41:39;;;;;;;57.47;52.78;;;;;;;10.41;100.00;101339.72;4973841;28;20066;-78
2021/09/25 04:44:07;;;;;;;58.28;53.35;;;;;;;10.14;100.00;101347.41;4973926;28;20057;-79
2021/09/25 04:46:34;;;;;;;51.85;46.95;;;;;;;10.27;100.00;101346.75;4975194;28;20145;-79
2021/09/25 04:49:02;;;;;;;52.75;48.35;;;;;;;10.27;100.00;101347.56;4974630;28;20049;-79
2021/09/25 04:51:28;;;;;;;49.10;44.85;;;;;;;9.85;100.00;101354.41;4975313;28;20058;-79
2021/09/25 04:53:56;;;;;;;52.88;47.95;;;;;;;10.05;100.00;101359.97;4974355;28;20046;-79
2021/09/25 04:56:23;;;;;;;46.65;42.75;;;;;;;9.86;100.00;101356.06;4974754;28;20438;-79
2021/09/25 04:58:50;;;;;;;46.75;42.38;;;;;;;9.97;100.00;101365.38;4975170;28;20050;-77
2021/09/25 05:01:17;;;;;;;51.28;47.03;;;;;;;10.07;100.00;101363.25;4974761;28;20383;-79
2021/09/25 05:03:43;;;;;;;48.45;44.20;;;;;;;10.08;100.00;101359.59;4966481;28;20459;-78
2021/09/25 05:06:12;;;;;;;51.50;47.17;;;;;;;10.37;100.00;101367.69;4975647;28;20051;-79
2021/09/25 05:08:38;;;;;;;50.03;45.47;;;;;;;10.14;100.00;101371.31;4975078;28;20110;-79
2021/09/25 05:11:05;;;;;;;51.22;46.90;;;;;;;10.35;100.00;101369.69;4974547;28;20092;-78
2021/09/25 05:13:32;;;;;;;51.60;47.35;;;;;;;9.95;100.00;101375.34;4974547;28;20047;-78
2021/09/25 05:15:59;;;;;;;52.65;48.13;;;;;;;10.56;100.00;101380.34;4975578;28;20121;-79
2021/09/25 05:18:25;;;;;;;50.80;46.45;;;;;;;10.78;100.00;101383.81;4974554;28;20046;-80
2021/09/25 05:20:52;;;;;;;50.15;45.65;;;;;;;10.93;100.00;101389.06;4974605;28;20062;-80
2021/09/25 05:23:21;;;;;;;49.38;45.30;;;;;;;10.99;100.00;101389.13;4974794;28;20054;-79
2021/09/25 05:25:48;;;;;;;46.72;42.70;;;;;;;11.05;100.00;101390.19;4974607;28;20050;-79
2021/09/25 05:28:15;;;;;;;51.28;47.30;;;;;;;11.33;100.00;101384.84;4974790;28;20070;-78
2021/09/25 05:30:42;;;;;;;48.80;44.60;;;;;;;11.46;100.00;101389.44;4974230;28;20053;-77
2021/09/25 05:33:09;;;;;;;48.55;44.00;;;;;;;11.52;100.00;101396.63;4974488;28;20553;-79
2021/09/25 05:35:36;;;;;;;49.15;45.25;;;;;;;11.73;100.00;101397.56;4973703;28;20141;-79
2021/09/25 05:38:04;;;;;;;47.13;43.13;;;;;;;12.12;100.00;101395.13;4974677;28;20054;-78
2021/09/25 05:40:32;;;;;;;47.10;43.08;;;;;;;12.33;100.00;101396.00;4974734;28;20443;-78
2021/09/25 05:42:59;;;;;;;47.28;43.38;;;;;;;12.63;100.00;101391.16;4974015;28;20550;-78
2021/09/25 05:45:25;;;;;;;50.25;45.63;;;;;;;12.92;100.00;101392.63;4974022;28;20514;-77
2021/09/25 05:47:52;;;;;;;48.78;45.05;;;;;;;13.12;100.00;101386.44;4974985;28;20050;-79
2021/09/25 05:50:19;;;;;;;47.25;43.40;;;;;;;13.21;100.00;101390.53;4975041;28;20055;-79
2021/09/25 05:52:46;;;;;;;49.90;45.53;;;;;;;13.28;100.00;101388.72;4974315;28;20133;-77
2021/09/25 05:55:13;;;;;;;48.00;44.10;;;;;;;13.13;100.00;101391.59;4974281;28;20047;-79
2021/09/25 05:57:43;;;;;;;46.72;42.60;;;;;;;13.44;100.00;101390.97;4973914;28;20047;-79
2021/09/25 06:00:11;;;;;;;44.70;41.03;;;;;;;13.56;100.00;101401.00;4974244;28;20074;-79
2021/09/25 06:02:38;;;;;;;44.50;40.83;;;;;;;13.74;100.00;101399.31;4973672;28;20054;-78
2021/09/25 06:05:06;;;;;;;46.00;42.33;;;;;;;13.93;100.00;101410.13;4973775;28;20120;-82
2021/09/25 06:07:33;;;;;;;42.45;38.40;;;;;;;15.27;100.00;101409.06;4973530;28;20050;-78
2021/09/25 06:10:00;;;;;;;41.28;37.67;;;;;;;14.73;100.00;101407.88;4973761;28;20467;-80
2021/09/25 06:12:28;;;;;;;40.47;36.97;;;;;;;15.09;100.00;101412.53;4974368;28;20047;-79
2021/09/25 06:14:56;;;;;;;41.30;37.92;;;;;;;15.06;100.00;101409.47;4973668;28;20051;-78
2021/09/25 06:17:24;;;;;;;41.97;38.35;;;;;;;15.18;100.00;101414.94;4973816;28;20055;-82
2021/09/25 06:19:51;;;;;;;41.78;38.08;;;;;;;15.59;100.00;101414.34;4973919;28;20391;-79
2021/09/25 06:22:19;;;;;;;39.53;36.38;;;;;;;16.01;100.00;101427.91;4974152;28;20476;-80
2021/09/25 06:24:46;;;;;;;42.42;38.90;;;;;;;15.81;100.00;101433.50;4974698;28;20051;-80
2021/09/25 06:27:12;;;;;;;41.70;38.08;;;;;;;15.78;100.00;101432.06;4973513;28;20490;-80
2021/09/25 06:29:39;;;;;;;41.88;38.22;;;;;;;15.97;100.00;101437.41;4973534;28;20051;-80
2021/09/25 06:32:08;;;;;;;41.55;38.20;;;;;;;16.18;100.00;101434.28;4969515;28;20137;-79
2021/09/25 06:34:35;;;;;;;42.85;39.40;;;;;;;16.30;100.00;101444.25;4973691;28;20054;-82
2021/09/25 06:37:02;;;;;;;41.78;38.10;;;;;;;16.54;100.00;101447.84;4974499;28;20058;-79
2021/09/25 06:39:29;;;;;;;41.20;38.60;;;;;;;16.71;100.00;101451.53;4973809;28;20062;-78
2021/09/25 06:41:56;;;;;;;43.90;40.85;;;;;;;16.91;100.00;101452.06;4973318;28;20057;-78
2021/09/25 06:44:22;;;;;;;41.10;38.30;;;;;;;16.72;100.00;101453.16;4973269;28;20479;-78
2021/09/25 06:46:49;;;;;;;39.35;36.67;;;;;;;17.04;100.00;101455.59;4973602;28;20046;-79
2021/09/25 06:49:18;;;;;;;37.42;34.92;;;;;;;17.42;100.00;101457.03;4973663;28;20050;-80
2021/09/25 06:51:44;;;;;;;35.67;33.33;;;;;;;16.75;100.00;101460.72;4974319;28;20403;-81
2021/09/25 06:54:11;;;;;;;36.22;33.65;;;;;;;17.29;100.00;101458.06;4973403;28;20058;-81
2021/09/25 06:56:38;;;;;;;38.10;35.35;;;;;;;17.53;100.00;101453.53;4973020;28;20483;-77
2021/09/25 06:59:05;;;;;;;41.42;38.63;;;;;;;17.97;100.00;101462.00;4973077;28;20113;-80
2021/09/25 07:01:32;;;;;;;40.92;37.55;;;;;;;18.20;100.00;101459.28;4972813;28;20476;-80
2021/09/25 07:03:59;;;;;;;40.80;38.10;;;;;;;18.22;100.00;101464.44;4973370;28;20054;-79
2021/09/25 07:06:27;;;;;;;38.38;35.75;;;;;;;18.54;100.00;101467.44;4974251;28;20117;-80
2021/09/25 07:08:54;;;;;;;38.70;35.78;;;;;;;18.41;100.00;101476.63;4973194;28;20476;-79
2021/09/25 07:11:21;;;;;;;38.28;35.67;;;;;;;18.62;100.00;101472.44;4973117;28;20476;-80
2021/09/25 07:13:47;;;;;;;40.40;37.47;;;;;;;18.79;100.00;101474.38;4973334;28;20380;-79
2021/09/25 07:16:14;;;;;;;39.42;36.47;;;;;;;18.69;100.00;101477.69;4974437;28;20190;-80
2021/09/25 07:18:41;;;;;;;43.47;40.25;;;;;;;18.90;100.00;101473.50;4974707;28;20047;-78
2021/09/25 07:21:08;;;;;;;40.20;37.67;;;;;;;18.97;100.00;101483.06;4972621;28;20054;-80
2021/09/25 07:23:36;;;;;;;37.28;34.85;;;;;;;19.41;100.00;101485.09;4976888;28;20058;-79
2021/09/25 07:26:04;;;;;;;42.72;39.80;;;;;;;19.93;100.00;101486.66;4976497;28;20054;-78
2021/09/25 07:28:33;;;;;;;40.35;37.63;;;;;;;19.34;100.00;101479.88;4976963;28;20125;-81
2021/09/25 07:31:00;;;;;;;35.55;33.13;;;;;;;19.33;100.00;101486.31;4976523;28;20082;-80
2021/09/25 07:33:27;;;;;;;36.22;33.92;;;;;;;19.66;100.00;101496.28;4976890;28;20061;-79
2021/09/25 07:35:55;;;;;;;35.75;33.50;;;;;;;19.87;100.00;101491.19;4977905;28;20120;-79
2021/09/25 07:38:22;;;;;;;39.47;36.80;;;;;;;20.22;100.00;101500.81;4976535;28;20055;-81
2021/09/25 07:40:52;;;;;;;39.08;36.78;;;;;;;20.78;100.00;101496.03;4976521;28;20054;-81
2021/09/25 07:43:19;;;;;;;40.42;37.83;;;;;;;20.89;96.26;101497.78;4976461;28;20055;-80
2021/09/25 07:45:45;;;;;;;38.90;36.50;;;;;;;20.82;92.88;101502.56;4976572;28;20054;-80
2021/09/25 07:48:12;;;;;;;35.47;33.20;;;;;;;20.93;93.01;101501.56;4976662;28;20047;-81
2021/09/25 07:50:39;;;;;;;38.00;35.55;;;;;;;21.24;80.31;101493.72;4977463;28;20058;-79
2021/09/25 07:53:06;;;;;;;34.88;32.17;;;;;;;21.35;74.02;101486.53;4976274;28;20479;-79
2021/09/25 07:55:34;;;;;;;36.97;34.17;;;;;;;22.01;78.84;101489.66;4976369;28;20078;-81
2021/09/25 07:58:02;;;;;;;34.60;32.10;;;;;;;21.86;78.72;101498.50;4976350;28;20129;-83
2021/09/25 08:00:29;;;;;;;36.80;34.25;;;;;;;22.41;72.53;101496.31;4975992;28;20448;-80
2021/09/25 08:02:56;;;;;;;34.53;31.92;;;;;;;21.83;71.22;101493.63;4974460;28;20062;-84
2021/09/25 08:05:23;;;;;;;35.45;32.78;;;;;;;22.09;73.21;101499.16;4976729;28;20149;-80
2021/09/25 08:07:49;;;;;;;39.83;37.03;;;;;;;22.08;75.04;101494.81;4976012;28;20113;-80
2021/09/25 08:10:17;;;;;;;37.88;34.85;;;;;;;22.64;68.39;101503.16;4976087;28;20081;-79
2021/09/25 08:12:44;;;;;;;38.17;35.67;;;;;;;21.94;67.57;101495.31;4975795;28;20058;-80
2021/09/25 08:15:15;;;;;;;35.47;33.05;;;;;;;22.04;78.35;101485.59;4976967;28;20050;-82
2021/09/25 08:17:42;;;;;;;39.30;36.78;;;;;;;22.41;62.55;101494.41;4975861;28;20109;-79
2021/09/25 08:20:12;;;;;;;36.38;34.00;;;;;;;21.94;64.04;101497.19;4975680;28;20054;-80
2021/09/25 08:22:40;;;;;;;35.60;32.88;;;;;;;22.88;63.20;101499.94;4976153;28;20047;-80
2021/09/25 08:25:08;;;;;;;38.00;35.70;;;;;;;22.76;64.74;101492.88;4975883;28;20058;-81
2021/09/25 08:27:35;;;;;;;38.63;36.33;;;;;;;23.18;57.38;101496.44;4976283;28;20050;-79
2021/09/25 08:30:02;;;;;;;41.28;38.80;;;;;;;22.71;57.13;101501.00;4975970;28;20458;-80
2021/09/25 08:32:30;;;;;;;36.83;34.33;;;;;;;23.11;55.27;101496.72;4975569;28;20050;-80
2021/09/25 08:34:57;;;;;;;36.78;34.30;;;;;;;22.91;52.64;101492.09;4975820;28;20056;-81
2021/09/25 08:37:23;;;;;;;32.95;30.65;;;;;;;23.50;54.04;101499.66;4975671;28;20058;-80
2021/09/25 08:39:50;;;;;;;35.75;33.10;;;;;;;24.36;51.31;101495.06;4976260;28;20047;-80
2021/09/25 08:42:19;;;;;;;30.85;28.65;;;;;;;23.98;50.88;101485.75;4975275;28;20381;-83
2021/09/25 08:44:51;;;;;;;30.90;28.70;;;;;;;22.79;54.35;101500.47;4975678;28;20046;-79
2021/09/25 08:47:18;;;;;;;34.35;31.67;;;;;;;22.13;56.66;101495.66;4975499;28;20062;-79
2021/09/25 08:49:46;;;;;;;32.60;30.35;;;;;;;24.07;50.56;101497.63;4975483;28;20051;-80
2021/09/25 08:52:13;;;;;;;33.88;31.45;;;;;;;23.18;52.61;101497.28;4976330;28;20482;-79
2021/09/25 08:54:40;;;;;;;31.10;28.80;;;;;;;23.92;47.15;101495.00;4975933;28;20051;-80
2021/09/25 08:57:07;;;;;;;31.63;29.63;;;;;;;23.29;48.18;101496.16;4975165;28;20054;-78
2021/09/25 08:59:34;;;;;;;33.53;31.52;;;;;;;23.49;51.63;101502.66;4975338;28;20133;-76
2021/09/25 09:02:10;;;;;;;34.95;32.63;;;;;;;23.71;50.07;101492.34;4975491;28;20058;-79
2021/09/25 09:04:46;;;;;;;35.65;33.50;;;;;;;24.76;47.32;101504.09;4975178;28;20043;-79
2021/09/25 09:07:14;;;;;;;40.17;37.70;;;;;;;25.59;45.29;101494.16;4976066;28;20058;-77
2021/09/25 09:09:42;;;;;;;34.00;31.80;;;;;;;24.53;50.16;101494.72;4975504;28;20046;-80
2021/09/25 09:12:09;;;;;;;33.53;31.13;;;;;;;24.76;46.56;101490.50;4975196;28;20137;-81
2021/09/25 09:14:43;;;;;;;35.53;33.33;;;;;;;23.67;51.92;101502.09;4974975;28;20054;-80
2021/09/25 09:17:10;;;;;;;38.40;35.60;;;;;;;24.67;51.58;101492.19;4960502;28;20062;-80
2021/09/25 09:19:37;;;;;;;37.90;35.67;;;;;;;24.94;46.97;101493.66;4974710;28;20058;-80
2021/09/25 09:22:06;;;;;;;38.25;35.72;;;;;;;24.22;48.95;101497.56;4975818;28;20062;-80
2021/09/25 09:24:42;;;;;;;45.80;43.20;;;;;;;23.65;51.37;101490.69;4975043;28;20117;-80
2021/09/25 09:27:14;;;;;;;45.00;42.20;;;;;;;24.27;50.09;101488.59;4974653;28;20051;-79
2021/09/25 09:29:41;;;;;;;;;;;;;;;22.94;54.14;101504.28;4974784;28;20439;-79
2021/09/25 09:32:11;;;;;;;40.90;37.88;;;;;;;23.70;53.28;101489.91;4974363;28;21532;-79
2021/09/25 09:34:38;;;;;;;38.67;36.20;;;;;;;24.78;54.07;101493.75;4974834;28;20448;-79
2021/09/25 09:37:17;;;;;;;44.95;42.15;;;;;;;25.67;44.42;101492.72;4975763;28;20113;-80
2021/09/25 09:39:44;;;;;;;43.10;40.40;;;;;;;26.16;43.23;101488.91;4974636;28;20058;-79
2021/09/25 09:42:11;;;;;;;40.28;37.25;;;;;;;25.07;46.81;101501.13;4973815;28;20062;-79
2021/09/25 09:44:39;;;;;;;39.47;36.78;;;;;;;24.86;46.38;101498.56;4974157;28;20050;-81
2021/09/25 09:47:08;;;;;;;40.25;37.53;;;;;;;26.22;44.43;101485.00;4974188;28;20150;-80
2021/09/25 09:49:37;;;;;;;40.60;37.75;;;;;;;25.65;43.46;101497.63;4974231;28;20101;-79
2021/09/25 09:52:07;;;;;;;37.55;35.05;;;;;;;25.40;47.18;101502.22;4974982;28;20463;-79
2021/09/25 09:54:37;;;;;;;33.45;31.15;;;;;;;24.53;45.35;101502.06;4974261;28;20058;-79
2021/09/25 09:57:07;;;;;;;35.38;32.97;;;;;;;25.78;44.53;101492.31;4974571;28;20137;-80
2021/09/25 09:59:34;;;;;;;38.00;35.35;;;;;;;24.75;44.78;101505.19;4974090;28;20399;-80
2021/09/25 10:02:00;;;;;;;41.42;38.72;;;;;;;26.64;42.15;101489.59;4973783;28;20055;-80
2021/09/25 10:04:28;;;;;;;35.40;33.00;;;;;;;26.09;40.82;101489.25;4974061;28;20057;-80
2021/09/25 10:06:54;;;;;;;36.03;33.38;;;;;;;25.21;44.13;101493.19;4974738;28;20055;-81
2021/09/25 10:09:23;;;;;;;37.83;34.70;;;;;;;25.76;42.75;101491.00;4974211;28;20051;-81
2021/09/25 10:11:54;;;;;;;33.90;31.23;;;;;;;25.33;45.13;101505.28;4959403;28;20051;-81
2021/09/25 10:14:23;;;;;;;36.72;34.40;;;;;;;25.86;47.43;101495.53;4974077;28;20446;-81
2021/09/25 10:16:52;;;;;;;33.97;31.58;;;;;;;26.18;41.81;101495.66;4973258;28;20061;-78
2021/09/25 10:19:21;;;;;;;35.45;32.90;;;;;;;26.93;38.73;101492.16;4972050;28;20046;-78
2021/09/25 10:21:49;;;;;;;42.97;40.30;;;;;;;26.63;38.90;101492.63;4974026;28;20050;-80
2021/09/25 10:24:21;;;;;;;39.83;36.92;;;;;;;25.04;43.02;101496.28;4973796;28;20455;-78
2021/09/25 10:26:48;;;;;;;38.75;36.22;;;;;;;26.81;38.99;101488.25;4969974;28;20065;-80
2021/09/25 10:29:21;;;;;;;37.60;35.10;;;;;;;27.55;37.24;101489.19;4973878;28;20051;-80
2021/09/25 10:31:49;;;;;;;40.10;37.45;;;;;;;27.37;37.20;101485.41;4973750;28;20051;-79
2021/09/25 10:34:19;;;;;;;45.85;42.95;;;;;;;24.21;45.39;101487.81;4973995;28;20066;-79
2021/09/25 10:36:52;;;;;;;39.45;36.95;;;;;;;24.11;47.90;101481.59;4974650;28;20058;-79
2021/09/25 10:39:27;;;;;;;40.45;37.42;;;;;;;25.01;44.74;101478.63;4974104;28;20055;-79
2021/09/25 10:42:09;;;;;;;36.92;34.17;;;;;;;27.33;40.65;101476.22;4970270;28;20047;-79
2021/09/25 10:44:52;;;;;;;33.40;31.00;;;;;;;26.66;41.13;101472.97;4970510;28;20046;-78
2021/09/25 10:47:20;;;;;;;36.55;33.75;;;;;;;27.11;38.40;101463.25;4971061;28;20160;-83
2021/09/25 10:49:51;;;;;;;36.65;33.55;;;;;;;28.56;37.16;101457.34;4969366;28;20484;-82
2021/09/25 10:52:21;;;;;;;34.60;32.13;;;;;;;28.90;34.24;101466.94;4974771;28;20057;-79
2021/09/25 10:55:23;;;;;;;33.78;31.25;;;;;;;29.10;34.62;101460.13;4977487;28;20047;-81
2021/09/25 10:58:20;;;;;;;36.70;34.13;;;;;;;26.33;40.12;101459.25;4977305;28;20113;-79
2021/09/25 11:00:54;;;;;;;38.78;35.72;;;;;;;28.53;35.19;101457.94;4975159;28;20055;-78
2021/09/25 11:04:08;;;;;;;35.80;33.20;;;;;;;29.73;36.14;101455.44;4977060;28;20058;-80
2021/09/25 11:06:45;;;;;;;36.60;33.80;;;;;;;27.63;36.38;101460.41;4959752;28;20059;-79
2021/09/25 11:09:18;;;;;;;35.50;32.90;;;;;;;29.00;34.79;101462.00;4977648;28;20058;-80